Terminal Aerodrome Forecast
Issued by NWS Melbourne, FL

Home | Current Version | Previous Version | Text Only | Print | Product List | Glossary On
Versions: 1 2 3 4 5 6 7 8 9 10 11 12 13 14 15
000
FTUS42 KMLB 040533
TAFMLB
TAF
KMLB 040533Z 0406/0506 VRB02KT P6SM SCT250
     FM041300 30004KT P6SM SCT030 SCT250
     FM041800 07008KT P6SM VCTS SCT035CB BKN250
      TEMPO 0419/0422 TS BKN035CB BKN080
     FM050000 05004KT P6SM VCSH SCT035 BKN100=

USA.gov is the U.S. government's official web portal to all federal, state and local government web resources and services.